sensor_id;sensor_type;location;lat;lon;timestamp;P1;durP1;ratioP1;P2;durP2;ratioP2
13291;SDS011;6714;53.056;8.690;2023-04-19T00:00:43;4.40;;;4.00;;
13291;SDS011;6714;53.056;8.690;2023-04-19T00:03:26;4.93;;;4.47;;
13291;SDS011;6714;53.056;8.690;2023-04-19T00:06:09;4.73;;;4.23;;
13291;SDS011;6714;53.056;8.690;2023-04-19T00:08:54;7.53;;;4.73;;
13291;SDS011;6714;53.056;8.690;2023-04-19T00:11:36;4.67;;;4.27;;
13291;SDS011;6714;53.056;8.690;2023-04-19T00:14:18;4.50;;;4.10;;
13291;SDS011;6714;53.056;8.690;2023-04-19T00:17:00;5.30;;;4.80;;
13291;SDS011;6714;53.056;8.690;2023-04-19T00:19:44;5.60;;;4.43;;
13291;SDS011;6714;53.056;8.690;2023-04-19T00:22:26;7.50;;;5.60;;
13291;SDS011;6714;53.056;8.690;2023-04-19T00:25:08;9.53;;;6.23;;
13291;SDS011;6714;53.056;8.690;2023-04-19T00:27:51;6.53;;;5.47;;
13291;SDS011;6714;53.056;8.690;2023-04-19T00:30:33;6.00;;;5.17;;
13291;SDS011;6714;53.056;8.690;2023-04-19T00:33:15;6.03;;;4.90;;
13291;SDS011;6714;53.056;8.690;2023-04-19T00:35:58;6.37;;;5.77;;
13291;SDS011;6714;53.056;8.690;2023-04-19T00:38:41;6.43;;;5.37;;
13291;SDS011;6714;53.056;8.690;2023-04-19T00:41:23;6.90;;;5.90;;
13291;SDS011;6714;53.056;8.690;2023-04-19T00:44:05;8.63;;;6.70;;
13291;SDS011;6714;53.056;8.690;2023-04-19T00:46:47;6.93;;;5.17;;
13291;SDS011;6714;53.056;8.690;2023-04-19T00:49:29;6.67;;;5.20;;
13291;SDS011;6714;53.056;8.690;2023-04-19T00:52:13;6.13;;;5.50;;
13291;SDS011;6714;53.056;8.690;2023-04-19T00:54:55;7.73;;;5.43;;
13291;SDS011;6714;53.056;8.690;2023-04-19T00:57:39;7.57;;;5.60;;
13291;SDS011;6714;53.056;8.690;2023-04-19T01:00:21;6.57;;;5.57;;
13291;SDS011;6714;53.056;8.690;2023-04-19T01:03:03;7.87;;;5.73;;
13291;SDS011;6714;53.056;8.690;2023-04-19T01:05:45;5.63;;;4.93;;
13291;SDS011;6714;53.056;8.690;2023-04-19T01:08:29;7.40;;;5.57;;
13291;SDS011;6714;53.056;8.690;2023-04-19T01:11:11;6.33;;;5.70;;
13291;SDS011;6714;53.056;8.690;2023-04-19T01:13:53;6.07;;;5.10;;
13291;SDS011;6714;53.056;8.690;2023-04-19T01:16:37;7.23;;;5.80;;
13291;SDS011;6714;53.056;8.690;2023-04-19T01:19:19;7.93;;;5.83;;
13291;SDS011;6714;53.056;8.690;2023-04-19T01:22:02;7.60;;;5.07;;
13291;SDS011;6714;53.056;8.690;2023-04-19T01:24:46;6.97;;;5.47;;
13291;SDS011;6714;53.056;8.690;2023-04-19T01:27:29;5.87;;;5.30;;
13291;SDS011;6714;53.056;8.690;2023-04-19T01:30:11;6.67;;;5.13;;
13291;SDS011;6714;53.056;8.690;2023-04-19T01:32:53;6.53;;;5.80;;
13291;SDS011;6714;53.056;8.690;2023-04-19T01:35:35;5.30;;;4.70;;
13291;SDS011;6714;53.056;8.690;2023-04-19T01:38:17;5.53;;;4.93;;
13291;SDS011;6714;53.056;8.690;2023-04-19T01:41:01;7.87;;;6.33;;
13291;SDS011;6714;53.056;8.690;2023-04-19T01:43:43;7.70;;;5.57;;
13291;SDS011;6714;53.056;8.690;2023-04-19T01:46:25;6.93;;;6.03;;
13291;SDS011;6714;53.056;8.690;2023-04-19T01:49:07;7.97;;;6.00;;
13291;SDS011;6714;53.056;8.690;2023-04-19T01:51:50;7.00;;;5.43;;
13291;SDS011;6714;53.056;8.690;2023-04-19T01:54:32;6.80;;;4.97;;
13291;SDS011;6714;53.056;8.690;2023-04-19T01:57:15;6.10;;;5.50;;
13291;SDS011;6714;53.056;8.690;2023-04-19T01:59:58;5.97;;;4.70;;
13291;SDS011;6714;53.056;8.690;2023-04-19T02:02:40;4.97;;;4.47;;
13291;SDS011;6714;53.056;8.690;2023-04-19T02:05:22;5.83;;;5.27;;
13291;SDS011;6714;53.056;8.690;2023-04-19T02:08:04;6.83;;;5.37;;
13291;SDS011;6714;53.056;8.690;2023-04-19T02:10:46;7.53;;;5.37;;
13291;SDS011;6714;53.056;8.690;2023-04-19T02:13:30;4.97;;;4.40;;
13291;SDS011;6714;53.056;8.690;2023-04-19T02:16:12;5.83;;;5.23;;
13291;SDS011;6714;53.056;8.690;2023-04-19T02:18:54;6.90;;;6.00;;
13291;SDS011;6714;53.056;8.690;2023-04-19T02:21:37;6.60;;;4.57;;
13291;SDS011;6714;53.056;8.690;2023-04-19T02:24:19;5.37;;;4.87;;
13291;SDS011;6714;53.056;8.690;2023-04-19T02:27:02;6.63;;;5.73;;
13291;SDS011;6714;53.056;8.690;2023-04-19T02:29:46;8.93;;;6.80;;
13291;SDS011;6714;53.056;8.690;2023-04-19T02:32:28;8.07;;;5.60;;
13291;SDS011;6714;53.056;8.690;2023-04-19T02:35:11;6.47;;;5.43;;
13291;SDS011;6714;53.056;8.690;2023-04-19T02:37:53;6.33;;;5.67;;
13291;SDS011;6714;53.056;8.690;2023-04-19T02:40:35;8.70;;;6.37;;
13291;SDS011;6714;53.056;8.690;2023-04-19T02:43:17;6.83;;;6.13;;
13291;SDS011;6714;53.056;8.690;2023-04-19T02:46:01;7.63;;;5.47;;
13291;SDS011;6714;53.056;8.690;2023-04-19T02:48:43;5.40;;;4.63;;
13291;SDS011;6714;53.056;8.690;2023-04-19T02:51:25;5.67;;;4.53;;
13291;SDS011;6714;53.056;8.690;2023-04-19T02:54:07;7.00;;;5.57;;
13291;SDS011;6714;53.056;8.690;2023-04-19T02:56:50;8.43;;;6.47;;
13291;SDS011;6714;53.056;8.690;2023-04-19T02:59:32;6.10;;;5.47;;
13291;SDS011;6714;53.056;8.690;2023-04-19T03:02:15;7.17;;;6.17;;
13291;SDS011;6714;53.056;8.690;2023-04-19T03:04:58;9.00;;;7.33;;
13291;SDS011;6714;53.056;8.690;2023-04-19T03:07:40;6.60;;;5.90;;
13291;SDS011;6714;53.056;8.690;2023-04-19T03:10:22;8.07;;;6.47;;
13291;SDS011;6714;53.056;8.690;2023-04-19T03:13:05;10.00;;;7.13;;
13291;SDS011;6714;53.056;8.690;2023-04-19T03:15:47;9.90;;;7.17;;
13291;SDS011;6714;53.056;8.690;2023-04-19T03:18:31;6.83;;;5.80;;
13291;SDS011;6714;53.056;8.690;2023-04-19T03:21:13;10.10;;;7.30;;
13291;SDS011;6714;53.056;8.690;2023-04-19T03:23:55;6.40;;;4.57;;
13291;SDS011;6714;53.056;8.690;2023-04-19T03:26:37;8.80;;;5.83;;
13291;SDS011;6714;53.056;8.690;2023-04-19T03:29:19;9.30;;;7.13;;
13291;SDS011;6714;53.056;8.690;2023-04-19T03:32:01;8.43;;;5.83;;
13291;SDS011;6714;53.056;8.690;2023-04-19T03:34:45;9.97;;;7.30;;
13291;SDS011;6714;53.056;8.690;2023-04-19T03:37:27;7.43;;;5.83;;
13291;SDS011;6714;53.056;8.690;2023-04-19T03:40:10;7.50;;;5.70;;
13291;SDS011;6714;53.056;8.690;2023-04-19T03:42:52;8.63;;;7.03;;
13291;SDS011;6714;53.056;8.690;2023-04-19T03:45:34;8.47;;;6.00;;
13291;SDS011;6714;53.056;8.690;2023-04-19T03:48:16;9.73;;;6.47;;
13291;SDS011;6714;53.056;8.690;2023-04-19T03:51:00;7.33;;;6.30;;
13291;SDS011;6714;53.056;8.690;2023-04-19T03:53:42;6.60;;;5.03;;
13291;SDS011;6714;53.056;8.690;2023-04-19T03:56:24;7.97;;;5.83;;
13291;SDS011;6714;53.056;8.690;2023-04-19T03:59:06;7.20;;;5.33;;
13291;SDS011;6714;53.056;8.690;2023-04-19T04:01:48;7.03;;;5.13;;
13291;SDS011;6714;53.056;8.690;2023-04-19T04:04:31;6.10;;;5.47;;
13291;SDS011;6714;53.056;8.690;2023-04-19T04:07:14;5.57;;;4.87;;
13291;SDS011;6714;53.056;8.690;2023-04-19T04:09:56;6.63;;;5.27;;
13291;SDS011;6714;53.056;8.690;2023-04-19T04:12:39;6.77;;;5.33;;
13291;SDS011;6714;53.056;8.690;2023-04-19T04:15:21;7.10;;;5.60;;
13291;SDS011;6714;53.056;8.690;2023-04-19T04:18:03;5.50;;;5.00;;
13291;SDS011;6714;53.056;8.690;2023-04-19T04:20:45;7.03;;;5.77;;
13291;SDS011;6714;53.056;8.690;2023-04-19T04:23:29;5.93;;;4.93;;
13291;SDS011;6714;53.056;8.690;2023-04-19T04:26:12;5.67;;;5.00;;
13291;SDS011;6714;53.056;8.690;2023-04-19T04:28:55;5.93;;;5.03;;
13291;SDS011;6714;53.056;8.690;2023-04-19T04:31:37;6.43;;;5.23;;
13291;SDS011;6714;53.056;8.690;2023-04-19T04:34:19;8.20;;;5.40;;
13291;SDS011;6714;53.056;8.690;2023-04-19T04:37:01;8.03;;;5.20;;
13291;SDS011;6714;53.056;8.690;2023-04-19T04:39:45;5.63;;;5.10;;
13291;SDS011;6714;53.056;8.690;2023-04-19T04:42:27;5.27;;;4.63;;
13291;SDS011;6714;53.056;8.690;2023-04-19T04:45:10;6.30;;;4.83;;
13291;SDS011;6714;53.056;8.690;2023-04-19T04:47:52;6.30;;;4.93;;
13291;SDS011;6714;53.056;8.690;2023-04-19T04:50:34;5.37;;;4.70;;
13291;SDS011;6714;53.056;8.690;2023-04-19T04:53:16;7.50;;;4.97;;
13291;SDS011;6714;53.056;8.690;2023-04-19T04:56:00;7.20;;;5.10;;
13291;SDS011;6714;53.056;8.690;2023-04-19T04:58:42;5.53;;;5.00;;
13291;SDS011;6714;53.056;8.690;2023-04-19T05:01:25;6.20;;;4.87;;
13291;SDS011;6714;53.056;8.690;2023-04-19T05:04:07;6.00;;;4.80;;
13291;SDS011;6714;53.056;8.690;2023-04-19T05:06:49;5.53;;;4.90;;
13291;SDS011;6714;53.056;8.690;2023-04-19T05:09:31;8.37;;;4.87;;
13291;SDS011;6714;53.056;8.690;2023-04-19T05:12:15;8.93;;;5.80;;
13291;SDS011;6714;53.056;8.690;2023-04-19T05:14:57;9.27;;;5.87;;
13291;SDS011;6714;53.056;8.690;2023-04-19T05:17:40;7.40;;;5.80;;
13291;SDS011;6714;53.056;8.690;2023-04-19T05:20:22;5.30;;;4.70;;
13291;SDS011;6714;53.056;8.690;2023-04-19T05:23:04;4.43;;;3.87;;
13291;SDS011;6714;53.056;8.690;2023-04-19T05:25:47;6.87;;;5.00;;
13291;SDS011;6714;53.056;8.690;2023-04-19T05:28:30;7.30;;;5.30;;
13291;SDS011;6714;53.056;8.690;2023-04-19T05:31:12;8.70;;;5.57;;
13291;SDS011;6714;53.056;8.690;2023-04-19T05:33:55;8.07;;;5.43;;
13291;SDS011;6714;53.056;8.690;2023-04-19T05:36:37;6.87;;;4.60;;
13291;SDS011;6714;53.056;8.690;2023-04-19T05:39:19;6.73;;;5.10;;
13291;SDS011;6714;53.056;8.690;2023-04-19T05:42:01;6.70;;;5.33;;
13291;SDS011;6714;53.056;8.690;2023-04-19T05:44:45;6.83;;;5.30;;
13291;SDS011;6714;53.056;8.690;2023-04-19T05:47:27;10.00;;;6.47;;
13291;SDS011;6714;53.056;8.690;2023-04-19T05:50:09;5.53;;;4.47;;
13291;SDS011;6714;53.056;8.690;2023-04-19T05:52:51;6.00;;;5.10;;
13291;SDS011;6714;53.056;8.690;2023-04-19T05:55:34;7.23;;;6.00;;
13291;SDS011;6714;53.056;8.690;2023-04-19T05:58:16;5.50;;;4.47;;
13291;SDS011;6714;53.056;8.690;2023-04-19T06:01:00;5.60;;;5.00;;
13291;SDS011;6714;53.056;8.690;2023-04-19T06:03:43;6.63;;;4.80;;
13291;SDS011;6714;53.056;8.690;2023-04-19T06:06:25;4.53;;;3.60;;
13291;SDS011;6714;53.056;8.690;2023-04-19T06:09:07;7.90;;;5.03;;
13291;SDS011;6714;53.056;8.690;2023-04-19T06:11:51;5.37;;;4.37;;
13291;SDS011;6714;53.056;8.690;2023-04-19T06:14:33;6.33;;;3.83;;
13291;SDS011;6714;53.056;8.690;2023-04-19T06:17:17;8.47;;;5.03;;
13291;SDS011;6714;53.056;8.690;2023-04-19T06:20:03;6.50;;;4.67;;
13291;SDS011;6714;53.056;8.690;2023-04-19T06:22:47;3.93;;;3.63;;
13291;SDS011;6714;53.056;8.690;2023-04-19T06:25:29;3.77;;;3.33;;
13291;SDS011;6714;53.056;8.690;2023-04-19T06:28:11;6.53;;;4.90;;
13291;SDS011;6714;53.056;8.690;2023-04-19T06:30:53;5.20;;;3.60;;
13291;SDS011;6714;53.056;8.690;2023-04-19T06:33:37;7.20;;;4.70;;
13291;SDS011;6714;53.056;8.690;2023-04-19T06:36:19;8.53;;;5.47;;
13291;SDS011;6714;53.056;8.690;2023-04-19T06:39:01;6.33;;;4.10;;
13291;SDS011;6714;53.056;8.690;2023-04-19T06:41:44;3.70;;;3.03;;
13291;SDS011;6714;53.056;8.690;2023-04-19T06:44:26;8.23;;;6.07;;
13291;SDS011;6714;53.056;8.690;2023-04-19T06:47:08;6.57;;;4.53;;
13291;SDS011;6714;53.056;8.690;2023-04-19T06:49:52;9.80;;;6.40;;
13291;SDS011;6714;53.056;8.690;2023-04-19T06:52:34;4.07;;;3.40;;
13291;SDS011;6714;53.056;8.690;2023-04-19T06:55:16;4.47;;;3.50;;
13291;SDS011;6714;53.056;8.690;2023-04-19T06:57:58;6.33;;;4.07;;
13291;SDS011;6714;53.056;8.690;2023-04-19T07:00:40;4.13;;;3.73;;
13291;SDS011;6714;53.056;8.690;2023-04-19T07:03:23;7.67;;;5.00;;
13291;SDS011;6714;53.056;8.690;2023-04-19T07:06:06;6.47;;;4.30;;
13291;SDS011;6714;53.056;8.690;2023-04-19T07:08:48;3.93;;;3.40;;
13291;SDS011;6714;53.056;8.690;2023-04-19T07:11:31;4.93;;;3.50;;
13291;SDS011;6714;53.056;8.690;2023-04-19T07:14:13;3.40;;;3.10;;
13291;SDS011;6714;53.056;8.690;2023-04-19T07:16:55;5.83;;;5.00;;
13291;SDS011;6714;53.056;8.690;2023-04-19T07:19:38;3.80;;;3.37;;
13291;SDS011;6714;53.056;8.690;2023-04-19T07:22:21;5.40;;;4.63;;
13291;SDS011;6714;53.056;8.690;2023-04-19T07:25:03;4.37;;;3.93;;
13291;SDS011;6714;53.056;8.690;2023-04-19T07:27:46;5.73;;;3.53;;
13291;SDS011;6714;53.056;8.690;2023-04-19T07:30:28;4.30;;;3.90;;
13291;SDS011;6714;53.056;8.690;2023-04-19T07:33:10;4.17;;;3.77;;
13291;SDS011;6714;53.056;8.690;2023-04-19T07:35:52;4.80;;;3.67;;
13291;SDS011;6714;53.056;8.690;2023-04-19T07:38:37;4.20;;;3.50;;
13291;SDS011;6714;53.056;8.690;2023-04-19T07:41:19;3.20;;;3.00;;
13291;SDS011;6714;53.056;8.690;2023-04-19T07:44:01;4.50;;;3.47;;
13291;SDS011;6714;53.056;8.690;2023-04-19T07:46:43;3.80;;;3.40;;
13291;SDS011;6714;53.056;8.690;2023-04-19T07:49:25;4.80;;;3.23;;
13291;SDS011;6714;53.056;8.690;2023-04-19T07:52:12;4.77;;;3.17;;
13291;SDS011;6714;53.056;8.690;2023-04-19T07:54:58;4.50;;;2.53;;
13291;SDS011;6714;53.056;8.690;2023-04-19T07:57:41;4.00;;;3.27;;
13291;SDS011;6714;53.056;8.690;2023-04-19T08:00:27;3.23;;;2.90;;
13291;SDS011;6714;53.056;8.690;2023-04-19T08:03:10;3.63;;;2.87;;
13291;SDS011;6714;53.056;8.690;2023-04-19T08:05:52;4.67;;;3.90;;
13291;SDS011;6714;53.056;8.690;2023-04-19T08:08:35;3.40;;;3.10;;
13291;SDS011;6714;53.056;8.690;2023-04-19T08:11:18;2.50;;;2.20;;
13291;SDS011;6714;53.056;8.690;2023-04-19T08:14:01;4.30;;;2.73;;
13291;SDS011;6714;53.056;8.690;2023-04-19T08:16:43;2.23;;;2.03;;
13291;SDS011;6714;53.056;8.690;2023-04-19T08:19:25;2.73;;;2.27;;
13291;SDS011;6714;53.056;8.690;2023-04-19T08:22:07;2.43;;;2.27;;
13291;SDS011;6714;53.056;8.690;2023-04-19T08:24:49;2.23;;;2.03;;
13291;SDS011;6714;53.056;8.690;2023-04-19T08:27:34;2.50;;;2.30;;
13291;SDS011;6714;53.056;8.690;2023-04-19T08:30:16;2.70;;;2.50;;
13291;SDS011;6714;53.056;8.690;2023-04-19T08:32:58;2.37;;;2.23;;
13291;SDS011;6714;53.056;8.690;2023-04-19T08:35:40;3.27;;;2.47;;
13291;SDS011;6714;53.056;8.690;2023-04-19T08:38:24;4.70;;;2.77;;
13291;SDS011;6714;53.056;8.690;2023-04-19T08:41:06;3.73;;;2.17;;
13291;SDS011;6714;53.056;8.690;2023-04-19T08:43:50;4.30;;;2.37;;
13291;SDS011;6714;53.056;8.690;2023-04-19T08:46:33;2.43;;;2.23;;
13291;SDS011;6714;53.056;8.690;2023-04-19T08:49:15;2.80;;;1.90;;
13291;SDS011;6714;53.056;8.690;2023-04-19T08:51:59;1.73;;;1.63;;
13291;SDS011;6714;53.056;8.690;2023-04-19T08:54:42;1.87;;;1.60;;
13291;SDS011;6714;53.056;8.690;2023-04-19T08:57:24;1.60;;;1.50;;
13291;SDS011;6714;53.056;8.690;2023-04-19T09:00:08;1.80;;;1.70;;
13291;SDS011;6714;53.056;8.690;2023-04-19T09:02:51;2.83;;;1.60;;
13291;SDS011;6714;53.056;8.690;2023-04-19T09:05:34;2.43;;;1.43;;
13291;SDS011;6714;53.056;8.690;2023-04-19T09:08:20;1.83;;;1.60;;
13291;SDS011;6714;53.056;8.690;2023-04-19T09:11:02;1.90;;;1.60;;
13291;SDS011;6714;53.056;8.690;2023-04-19T09:13:44;1.77;;;1.67;;
13291;SDS011;6714;53.056;8.690;2023-04-19T09:16:28;2.10;;;1.90;;
13291;SDS011;6714;53.056;8.690;2023-04-19T09:19:10;1.60;;;1.50;;
13291;SDS011;6714;53.056;8.690;2023-04-19T09:21:53;2.00;;;1.70;;
13291;SDS011;6714;53.056;8.690;2023-04-19T09:24:38;2.47;;;1.60;;
13291;SDS011;6714;53.056;8.690;2023-04-19T09:27:24;2.00;;;1.70;;
13291;SDS011;6714;53.056;8.690;2023-04-19T09:30:07;1.83;;;1.70;;
13291;SDS011;6714;53.056;8.690;2023-04-19T09:32:50;1.80;;;1.70;;
13291;SDS011;6714;53.056;8.690;2023-04-19T09:35:39;1.80;;;1.70;;
13291;SDS011;6714;53.056;8.690;2023-04-19T09:38:21;1.70;;;1.60;;
13291;SDS011;6714;53.056;8.690;2023-04-19T09:41:07;1.70;;;1.60;;
13291;SDS011;6714;53.056;8.690;2023-04-19T09:43:49;2.70;;;1.80;;
13291;SDS011;6714;53.056;8.690;2023-04-19T09:46:32;1.43;;;1.33;;
13291;SDS011;6714;53.056;8.690;2023-04-19T09:49:17;2.50;;;1.40;;
13291;SDS011;6714;53.056;8.690;2023-04-19T09:52:00;1.67;;;1.57;;
13291;SDS011;6714;53.056;8.690;2023-04-19T09:54:42;2.13;;;1.80;;
13291;SDS011;6714;53.056;8.690;2023-04-19T09:57:25;2.00;;;1.50;;
13291;SDS011;6714;53.056;8.690;2023-04-19T10:00:07;1.70;;;1.60;;
13291;SDS011;6714;53.056;8.690;2023-04-19T10:02:52;2.90;;;1.83;;
13291;SDS011;6714;53.056;8.690;2023-04-19T10:05:38;2.33;;;1.60;;
13291;SDS011;6714;53.056;8.690;2023-04-19T10:08:21;2.77;;;1.90;;
13291;SDS011;6714;53.056;8.690;2023-04-19T10:11:03;1.37;;;1.20;;
13291;SDS011;6714;53.056;8.690;2023-04-19T10:13:45;2.07;;;1.50;;
13291;SDS011;6714;53.056;8.690;2023-04-19T10:16:29;1.50;;;1.50;;
13291;SDS011;6714;53.056;8.690;2023-04-19T10:19:12;1.63;;;1.53;;
13291;SDS011;6714;53.056;8.690;2023-04-19T10:21:57;3.30;;;1.50;;
13291;SDS011;6714;53.056;8.690;2023-04-19T10:24:39;2.50;;;1.50;;
13291;SDS011;6714;53.056;8.690;2023-04-19T10:27:23;2.57;;;1.40;;
13291;SDS011;6714;53.056;8.690;2023-04-19T10:30:06;1.80;;;1.33;;
13291;SDS011;6714;53.056;8.690;2023-04-19T10:32:57;1.20;;;1.20;;
13291;SDS011;6714;53.056;8.690;2023-04-19T10:35:43;1.60;;;1.20;;
13291;SDS011;6714;53.056;8.690;2023-04-19T10:38:36;1.20;;;1.10;;
13291;SDS011;6714;53.056;8.690;2023-04-19T10:41:19;1.33;;;1.30;;
13291;SDS011;6714;53.056;8.690;2023-04-19T10:44:08;2.60;;;1.30;;
13291;SDS011;6714;53.056;8.690;2023-04-19T10:46:51;1.87;;;1.40;;
13291;SDS011;6714;53.056;8.690;2023-04-19T10:49:37;1.53;;;1.43;;
13291;SDS011;6714;53.056;8.690;2023-04-19T10:52:25;1.67;;;1.20;;
13291;SDS011;6714;53.056;8.690;2023-04-19T10:55:10;1.93;;;1.53;;
13291;SDS011;6714;53.056;8.690;2023-04-19T10:58:02;1.20;;;1.10;;
13291;SDS011;6714;53.056;8.690;2023-04-19T11:00:45;1.40;;;1.30;;
13291;SDS011;6714;53.056;8.690;2023-04-19T11:06:28;2.10;;;1.17;;
13291;SDS011;6714;53.056;8.690;2023-04-19T11:09:10;1.45;;;1.35;;
13291;SDS011;6714;53.056;8.690;2023-04-19T11:11:56;1.38;;;1.27;;
13291;SDS011;6714;53.056;8.690;2023-04-19T11:14:39;1.30;;;1.30;;
13291;SDS011;6714;53.056;8.690;2023-04-19T11:17:22;1.67;;;1.55;;
13291;SDS011;6714;53.056;8.690;2023-04-19T11:20:07;1.55;;;1.20;;
13291;SDS011;6714;53.056;8.690;2023-04-19T11:22:50;1.40;;;1.30;;
13291;SDS011;6714;53.056;8.690;2023-04-19T11:25:32;1.02;;;1.02;;
13291;SDS011;6714;53.056;8.690;2023-04-19T11:28:15;2.10;;;1.10;;
13291;SDS011;6714;53.056;8.690;2023-04-19T11:30:58;0.98;;;0.98;;
13291;SDS011;6714;53.056;8.690;2023-04-19T11:33:40;1.23;;;1.23;;
13291;SDS011;6714;53.056;8.690;2023-04-19T11:36:24;1.55;;;1.45;;
13291;SDS011;6714;53.056;8.690;2023-04-19T11:39:07;1.70;;;1.60;;
13291;SDS011;6714;53.056;8.690;2023-04-19T11:41:49;1.33;;;1.33;;
13291;SDS011;6714;53.056;8.690;2023-04-19T11:44:33;1.45;;;1.35;;
13291;SDS011;6714;53.056;8.690;2023-04-19T11:47:15;2.50;;;1.95;;
13291;SDS011;6714;53.056;8.690;2023-04-19T11:52:55;3.35;;;1.48;;
13291;SDS011;6714;53.056;8.690;2023-04-19T11:55:37;3.42;;;1.40;;
13291;SDS011;6714;53.056;8.690;2023-04-19T11:58:26;1.20;;;1.20;;
13291;SDS011;6714;53.056;8.690;2023-04-19T12:01:11;1.27;;;1.10;;
13291;SDS011;6714;53.056;8.690;2023-04-19T12:03:53;1.02;;;1.02;;
13291;SDS011;6714;53.056;8.690;2023-04-19T12:06:36;1.27;;;1.27;;
13291;SDS011;6714;53.056;8.690;2023-04-19T12:09:19;1.60;;;1.25;;
13291;SDS011;6714;53.056;8.690;2023-04-19T12:12:02;1.35;;;1.25;;
13291;SDS011;6714;53.056;8.690;2023-04-19T12:14:50;1.00;;;1.00;;
13291;SDS011;6714;53.056;8.690;2023-04-19T12:17:34;2.05;;;1.30;;
13291;SDS011;6714;53.056;8.690;2023-04-19T12:20:37;1.30;;;1.20;;
13291;SDS011;6714;53.056;8.690;2023-04-19T12:23:20;1.20;;;1.20;;
13291;SDS011;6714;53.056;8.690;2023-04-19T12:26:02;1.38;;;1.27;;
13291;SDS011;6714;53.056;8.690;2023-04-19T12:28:45;1.30;;;1.20;;
13291;SDS011;6714;53.056;8.690;2023-04-19T12:31:29;1.90;;;1.80;;
13291;SDS011;6714;53.056;8.690;2023-04-19T12:34:14;1.60;;;1.50;;
13291;SDS011;6714;53.056;8.690;2023-04-19T12:36:56;1.10;;;1.10;;
13291;SDS011;6714;53.056;8.690;2023-04-19T12:39:39;1.13;;;1.13;;
13291;SDS011;6714;53.056;8.690;2023-04-19T12:42:21;2.08;;;1.38;;
13291;SDS011;6714;53.056;8.690;2023-04-19T12:45:05;1.17;;;1.08;;
13291;SDS011;6714;53.056;8.690;2023-04-19T12:47:47;2.47;;;1.88;;
13291;SDS011;6714;53.056;8.690;2023-04-19T12:50:31;2.15;;;1.50;;
13291;SDS011;6714;53.056;8.690;2023-04-19T12:53:14;2.65;;;1.50;;
13291;SDS011;6714;53.056;8.690;2023-04-19T12:55:57;2.30;;;1.45;;
13291;SDS011;6714;53.056;8.690;2023-04-19T12:58:40;1.55;;;1.40;;
13291;SDS011;6714;53.056;8.690;2023-04-19T13:01:37;1.40;;;1.30;;
13291;SDS011;6714;53.056;8.690;2023-04-19T13:04:33;1.92;;;1.77;;
13291;SDS011;6714;53.056;8.690;2023-04-19T13:20:20;2.08;;;1.60;;
13291;SDS011;6714;53.056;8.690;2023-04-19T13:23:16;1.67;;;1.58;;
13291;SDS011;6714;53.056;8.690;2023-04-19T13:26:12;1.90;;;1.52;;
13291;SDS011;6714;53.056;8.690;2023-04-19T13:29:09;1.63;;;1.52;;
13291;SDS011;6714;53.056;8.690;2023-04-19T13:32:05;1.95;;;1.83;;
13291;SDS011;6714;53.056;8.690;2023-04-19T13:35:01;1.30;;;1.27;;
13291;SDS011;6714;53.056;8.690;2023-04-19T14:19:33;1.95;;;1.85;;
13291;SDS011;6714;53.056;8.690;2023-04-19T14:22:29;2.50;;;2.33;;
13291;SDS011;6714;53.056;8.690;2023-04-19T14:25:25;2.65;;;2.30;;
13291;SDS011;6714;53.056;8.690;2023-04-19T14:28:21;2.75;;;1.92;;
13291;SDS011;6714;53.056;8.690;2023-04-19T14:31:05;2.38;;;2.17;;
13291;SDS011;6714;53.056;8.690;2023-04-19T14:33:48;2.38;;;2.17;;
13291;SDS011;6714;53.056;8.690;2023-04-19T14:49:29;2.60;;;2.00;;
13291;SDS011;6714;53.056;8.690;2023-04-19T14:52:25;2.30;;;2.10;;
13291;SDS011;6714;53.056;8.690;2023-04-19T14:55:21;1.98;;;1.85;;
13291;SDS011;6714;53.056;8.690;2023-04-19T14:58:17;2.33;;;2.13;;
13291;SDS011;6714;53.056;8.690;2023-04-19T15:01:14;2.15;;;2.00;;
13291;SDS011;6714;53.056;8.690;2023-04-19T15:04:10;2.10;;;1.90;;
13291;SDS011;6714;53.056;8.690;2023-04-19T15:48:18;3.15;;;1.95;;
13291;SDS011;6714;53.056;8.690;2023-04-19T15:51:01;3.03;;;1.95;;
13291;SDS011;6714;53.056;8.690;2023-04-19T15:53:57;2.78;;;2.40;;
13291;SDS011;6714;53.056;8.690;2023-04-19T15:56:53;2.47;;;2.28;;
13291;SDS011;6714;53.056;8.690;2023-04-19T15:59:49;3.58;;;2.33;;
13291;SDS011;6714;53.056;8.690;2023-04-19T16:02:45;1.90;;;1.80;;
13291;SDS011;6714;53.056;8.690;2023-04-19T17:38:08;2.80;;;1.80;;
13291;SDS011;6714;53.056;8.690;2023-04-19T17:40:51;3.00;;;1.97;;
13291;SDS011;6714;53.056;8.690;2023-04-19T17:43:34;2.60;;;1.80;;
13291;SDS011;6714;53.056;8.690;2023-04-19T17:46:17;2.03;;;1.90;;
13291;SDS011;6714;53.056;8.690;2023-04-19T17:49:01;1.90;;;1.80;;
13291;SDS011;6714;53.056;8.690;2023-04-19T17:51:43;3.17;;;1.80;;
13291;SDS011;6714;53.056;8.690;2023-04-19T17:54:28;2.93;;;2.00;;
13291;SDS011;6714;53.056;8.690;2023-04-19T17:57:15;2.63;;;2.10;;
13291;SDS011;6714;53.056;8.690;2023-04-19T17:59:58;2.90;;;1.90;;
13291;SDS011;6714;53.056;8.690;2023-04-19T18:02:45;1.77;;;1.60;;
13291;SDS011;6714;53.056;8.690;2023-04-19T18:05:27;2.20;;;1.90;;
13291;SDS011;6714;53.056;8.690;2023-04-19T18:08:09;3.33;;;1.97;;
13291;SDS011;6714;53.056;8.690;2023-04-19T18:10:54;4.27;;;1.70;;
13291;SDS011;6714;53.056;8.690;2023-04-19T18:13:38;1.87;;;1.57;;
13291;SDS011;6714;53.056;8.690;2023-04-19T18:16:20;1.90;;;1.80;;
13291;SDS011;6714;53.056;8.690;2023-04-19T18:19:03;1.70;;;1.60;;
13291;SDS011;6714;53.056;8.690;2023-04-19T18:21:47;1.70;;;1.60;;
13291;SDS011;6714;53.056;8.690;2023-04-19T18:24:30;2.30;;;1.63;;
13291;SDS011;6714;53.056;8.690;2023-04-19T18:27:16;2.70;;;1.80;;
13291;SDS011;6714;53.056;8.690;2023-04-19T18:30:02;2.80;;;1.90;;
13291;SDS011;6714;53.056;8.690;2023-04-19T18:32:45;3.50;;;1.80;;
13291;SDS011;6714;53.056;8.690;2023-04-19T18:35:28;2.13;;;1.67;;
13291;SDS011;6714;53.056;8.690;2023-04-19T18:38:12;2.90;;;1.67;;
13291;SDS011;6714;53.056;8.690;2023-04-19T18:40:54;1.83;;;1.73;;
13291;SDS011;6714;53.056;8.690;2023-04-19T18:43:38;2.43;;;1.60;;
13291;SDS011;6714;53.056;8.690;2023-04-19T18:46:20;1.70;;;1.60;;
13291;SDS011;6714;53.056;8.690;2023-04-19T18:49:03;2.23;;;1.87;;
13291;SDS011;6714;53.056;8.690;2023-04-19T18:51:45;4.30;;;2.03;;
13291;SDS011;6714;53.056;8.690;2023-04-19T18:54:30;2.23;;;1.90;;
13291;SDS011;6714;53.056;8.690;2023-04-19T18:57:13;3.53;;;1.80;;
13291;SDS011;6714;53.056;8.690;2023-04-19T19:00:04;2.73;;;1.90;;
13291;SDS011;6714;53.056;8.690;2023-04-19T19:02:50;1.77;;;1.67;;
13291;SDS011;6714;53.056;8.690;2023-04-19T19:05:32;2.03;;;1.70;;
13291;SDS011;6714;53.056;8.690;2023-04-19T19:08:15;2.00;;;1.80;;
13291;SDS011;6714;53.056;8.690;2023-04-19T19:10:58;1.73;;;1.63;;
13291;SDS011;6714;53.056;8.690;2023-04-19T19:13:41;2.70;;;2.20;;
13291;SDS011;6714;53.056;8.690;2023-04-19T19:16:26;1.80;;;1.70;;
13291;SDS011;6714;53.056;8.690;2023-04-19T19:19:08;1.97;;;1.83;;
13291;SDS011;6714;53.056;8.690;2023-04-19T19:21:50;1.97;;;1.87;;
13291;SDS011;6714;53.056;8.690;2023-04-19T19:24:33;2.13;;;1.87;;
13291;SDS011;6714;53.056;8.690;2023-04-19T19:27:15;2.03;;;1.83;;
13291;SDS011;6714;53.056;8.690;2023-04-19T19:29:58;3.97;;;1.97;;
13291;SDS011;6714;53.056;8.690;2023-04-19T19:32:43;2.80;;;1.90;;
13291;SDS011;6714;53.056;8.690;2023-04-19T19:35:26;2.07;;;1.87;;
13291;SDS011;6714;53.056;8.690;2023-04-19T19:38:10;1.93;;;1.83;;
13291;SDS011;6714;53.056;8.690;2023-04-19T19:40:53;2.13;;;1.80;;
13291;SDS011;6714;53.056;8.690;2023-04-19T19:43:36;2.70;;;1.90;;
13291;SDS011;6714;53.056;8.690;2023-04-19T19:46:19;1.60;;;1.50;;
13291;SDS011;6714;53.056;8.690;2023-04-19T19:49:03;3.47;;;1.83;;
13291;SDS011;6714;53.056;8.690;2023-04-19T19:51:46;2.00;;;1.83;;
13291;SDS011;6714;53.056;8.690;2023-04-19T19:54:29;2.60;;;2.03;;
13291;SDS011;6714;53.056;8.690;2023-04-19T19:57:12;2.00;;;1.90;;
13291;SDS011;6714;53.056;8.690;2023-04-19T19:59:55;2.33;;;1.90;;
13291;SDS011;6714;53.056;8.690;2023-04-19T20:02:39;2.00;;;1.80;;
13291;SDS011;6714;53.056;8.690;2023-04-19T20:05:24;3.97;;;1.80;;
13291;SDS011;6714;53.056;8.690;2023-04-19T20:08:08;2.37;;;1.70;;